Time;durP1;ratioP1;P1;durP2;ratioP2;P2;SDS_P1;SDS_P2;PMS_P1;PMS_P2;Temp;Humidity;BMP_temperature;BMP_pressure;BME280_temperature;BME280_humidity;BME280_pressure;Samples;Min_cycle;Max_cycle;Signal;HPM_P1;HPM_P2
2021/12/28 00:01:16;;;;;;;17.40;9.10;;;;;;;;;;7391815;19;20058;-77
2021/12/28 00:03:44;;;;;;;17.92;8.90;;;;;;;;;;7391992;19;19995;-76
2021/12/28 00:06:11;;;;;;;19.33;9.00;;;;;;;;;;7390936;19;19998;-76
2021/12/28 00:08:37;;;;;;;15.45;7.50;;;;;;;;;;7390346;19;20004;-76
2021/12/28 00:11:04;;;;;;;15.85;7.65;;;;;;;;;;7391736;19;20007;-76
2021/12/28 00:13:30;;;;;;;17.70;8.48;;;;;;;;;;7393865;19;20013;-77
2021/12/28 00:18:23;;;;;;;18.75;8.65;;;;;;;;;;7389453;19;20050;-77
2021/12/28 00:20:52;;;;;;;14.13;8.55;;;;;;;;;;7391224;19;20005;-77
2021/12/28 00:23:20;;;;;;;20.08;9.38;;;;;;;;;;7390494;19;20006;-77
2021/12/28 00:25:47;;;;;;;19.23;9.40;;;;;;;;;;7390998;19;20423;-77
2021/12/28 00:28:13;;;;;;;16.55;8.57;;;;;;;;;;7390453;19;20478;-77
2021/12/28 00:30:38;;;;;;;12.90;7.22;;;;;;;;;;7391196;19;19994;-77
2021/12/28 00:33:04;;;;;;;14.13;7.97;;;;;;;;;;7389063;19;20417;-78
2021/12/28 00:35:35;;;;;;;14.98;9.38;;;;;;;;;;7390453;19;20039;-77
2021/12/28 00:38:04;;;;;;;17.95;9.68;;;;;;;;;;7389278;19;19997;-77
2021/12/28 00:40:30;;;;;;;16.35;8.88;;;;;;;;;;7391148;19;20044;-77
2021/12/28 00:42:56;;;;;;;16.40;8.32;;;;;;;;;;7390413;19;20478;-77
2021/12/28 00:45:21;;;;;;;16.63;9.02;;;;;;;;;;7390346;19;20068;-76
2021/12/28 00:47:47;;;;;;;14.18;8.07;;;;;;;;;;7390470;19;19991;-77
2021/12/28 00:50:14;;;;;;;14.45;7.85;;;;;;;;;;7389789;19;20001;-77
2021/12/28 00:52:40;;;;;;;13.45;7.43;;;;;;;;;;7390163;19;19999;-77
2021/12/28 00:55:06;;;;;;;17.60;9.65;;;;;;;;;;7389853;19;20168;-76
2021/12/28 00:57:32;;;;;;;14.32;7.50;;;;;;;;;;7388249;19;19998;-78
2021/12/28 00:59:57;;;;;;;17.67;8.25;;;;;;;;;;7389304;19;20009;-77
2021/12/28 01:02:23;;;;;;;14.82;7.80;;;;;;;;;;7390168;19;19994;-77
2021/12/28 01:04:48;;;;;;;16.67;7.53;;;;;;;;;;7392582;19;20073;-77
2021/12/28 01:07:13;;;;;;;16.80;8.30;;;;;;;;;;7388334;19;20001;-77
2021/12/28 01:09:41;;;;;;;11.00;6.47;;;;;;;;;;7388885;19;19994;-77
2021/12/28 01:12:07;;;;;;;16.73;8.25;;;;;;;;;;7389752;19;19998;-77
2021/12/28 01:14:32;;;;;;;17.02;8.60;;;;;;;;;;7389761;19;19995;-77
2021/12/28 01:17:01;;;;;;;23.17;11.82;;;;;;;;;;7388910;19;20116;-77
2021/12/28 01:19:27;;;;;;;14.75;7.80;;;;;;;;;;7389120;19;20187;-77
2021/12/28 01:21:53;;;;;;;15.70;8.88;;;;;;;;;;7389345;19;20036;-77
2021/12/28 01:24:18;;;;;;;16.02;8.88;;;;;;;;;;7388970;19;20019;-76
2021/12/28 01:26:45;;;;;;;15.85;9.15;;;;;;;;;;7388296;19;20310;-77
2021/12/28 01:29:10;;;;;;;15.15;8.40;;;;;;;;;;7388851;19;19998;-77
2021/12/28 01:31:37;;;;;;;17.13;8.48;;;;;;;;;;7389424;19;20003;-77
2021/12/28 01:34:03;;;;;;;16.27;7.97;;;;;;;;;;7389134;19;20015;-77
2021/12/28 01:36:29;;;;;;;14.55;7.55;;;;;;;;;;7387790;19;20028;-77
2021/12/28 01:38:54;;;;;;;14.38;7.45;;;;;;;;;;7387814;19;19995;-77
2021/12/28 01:41:19;;;;;;;16.10;8.35;;;;;;;;;;7388907;19;20342;-77
2021/12/28 01:43:45;;;;;;;12.25;6.63;;;;;;;;;;7388756;19;19999;-77
2021/12/28 01:46:11;;;;;;;12.57;7.15;;;;;;;;;;7391870;19;20086;-76
2021/12/28 01:48:41;;;;;;;14.38;7.35;;;;;;;;;;7395596;19;20003;-77
2021/12/28 01:51:17;;;;;;;13.77;7.18;;;;;;;;;;7396473;19;20001;-77
2021/12/28 01:53:43;;;;;;;16.65;7.15;;;;;;;;;;7398162;19;20017;-76
2021/12/28 01:56:11;;;;;;;12.88;7.07;;;;;;;;;;7397530;19;20454;-77
2021/12/28 01:58:36;;;;;;;20.45;7.85;;;;;;;;;;7392679;19;19999;-77
2021/12/28 02:01:04;;;;;;;20.25;8.20;;;;;;;;;;7395929;19;20035;-77
2021/12/28 02:03:30;;;;;;;22.67;8.10;;;;;;;;;;7395761;19;19990;-77
2021/12/28 02:05:55;;;;;;;17.98;7.43;;;;;;;;;;7394875;19;20365;-77
2021/12/28 02:08:21;;;;;;;10.63;5.70;;;;;;;;;;7394444;19;19999;-77
2021/12/28 02:10:49;;;;;;;30.08;6.35;;;;;;;;;;7395690;19;19991;-77
2021/12/28 02:13:15;;;;;;;17.45;6.32;;;;;;;;;;7395162;19;20488;-77
2021/12/28 02:15:41;;;;;;;46.47;7.18;;;;;;;;;;7394853;19;20005;-76
2021/12/28 02:18:08;;;;;;;41.88;8.98;;;;;;;;;;7392690;19;20065;-78
2021/12/28 02:20:35;;;;;;;21.55;7.00;;;;;;;;;;7398776;19;19991;-77
2021/12/28 02:23:00;;;;;;;41.28;6.80;;;;;;;;;;7394960;19;20003;-77
2021/12/28 02:25:26;;;;;;;37.25;7.07;;;;;;;;;;7394713;19;20319;-76
2021/12/28 02:27:51;;;;;;;29.95;5.85;;;;;;;;;;7394972;19;19997;-77
2021/12/28 02:30:19;;;;;;;32.00;7.40;;;;;;;;;;7394429;19;19995;-77
2021/12/28 02:32:46;;;;;;;16.15;5.82;;;;;;;;;;7395114;19;19998;-78
2021/12/28 02:35:15;;;;;;;9.57;5.55;;;;;;;;;;7395313;19;19991;-77
2021/12/28 02:37:41;;;;;;;52.10;10.65;;;;;;;;;;7393192;19;20434;-78
2021/12/28 02:40:08;;;;;;;26.98;6.43;;;;;;;;;;7393863;19;20002;-77
2021/12/28 02:42:34;;;;;;;49.22;7.63;;;;;;;;;;7395982;19;20109;-76
2021/12/28 02:45:07;;;;;;;41.90;6.60;;;;;;;;;;7397797;19;20438;-76
2021/12/28 02:47:34;;;;;;;13.63;4.70;;;;;;;;;;7391881;19;19995;-77
2021/12/28 02:49:59;;;;;;;10.88;4.93;;;;;;;;;;7393725;19;20062;-77
2021/12/28 02:52:24;;;;;;;6.18;3.80;;;;;;;;;;7392553;19;20007;-76
2021/12/28 02:54:50;;;;;;;7.63;4.00;;;;;;;;;;7393546;19;19999;-77
2021/12/28 02:57:15;;;;;;;12.50;4.68;;;;;;;;;;7391040;19;19998;-77
2021/12/28 02:59:45;;;;;;;8.35;3.85;;;;;;;;;;7393541;19;20454;-77
2021/12/28 03:02:10;;;;;;;15.32;4.28;;;;;;;;;;7394457;19;20238;-76
2021/12/28 03:04:35;;;;;;;8.45;4.35;;;;;;;;;;7393908;19;19999;-77
2021/12/28 03:07:01;;;;;;;41.10;5.82;;;;;;;;;;7392126;19;20027;-77
2021/12/28 03:09:26;;;;;;;12.82;3.72;;;;;;;;;;7393034;19;20848;-77
2021/12/28 03:11:51;;;;;;;14.88;4.18;;;;;;;;;;7394074;19;19991;-77
2021/12/28 03:14:17;;;;;;;21.40;5.53;;;;;;;;;;7393473;19;20001;-76
2021/12/28 03:16:42;;;;;;;12.73;4.28;;;;;;;;;;7392427;19;19994;-77
2021/12/28 03:19:07;;;;;;;10.35;3.90;;;;;;;;;;7392993;19;20007;-77
2021/12/28 03:21:35;;;;;;;8.85;3.90;;;;;;;;;;7393544;19;20362;-77
2021/12/28 03:24:01;;;;;;;6.70;3.20;;;;;;;;;;7393096;19;20011;-76
2021/12/28 03:26:27;;;;;;;8.27;3.38;;;;;;;;;;7392460;19;20003;-77
2021/12/28 03:28:52;;;;;;;8.07;3.63;;;;;;;;;;7392936;19;20359;-77
2021/12/28 03:31:20;;;;;;;6.55;3.58;;;;;;;;;;7393569;19;20510;-77
2021/12/28 03:33:48;;;;;;;14.75;4.35;;;;;;;;;;7397420;19;19998;-77
2021/12/28 03:36:15;;;;;;;10.73;3.83;;;;;;;;;;7392327;19;19999;-77
2021/12/28 03:38:41;;;;;;;9.45;4.00;;;;;;;;;;7390002;19;20019;-77
2021/12/28 03:41:08;;;;;;;7.43;5.13;;;;;;;;;;7393027;19;20002;-77
2021/12/28 03:43:36;;;;;;;11.10;5.32;;;;;;;;;;7392552;19;20002;-76
2021/12/28 03:46:01;;;;;;;9.35;4.38;;;;;;;;;;7391980;19;19998;-77
2021/12/28 03:48:27;;;;;;;5.68;4.15;;;;;;;;;;7391893;19;20011;-76
2021/12/28 03:50:52;;;;;;;10.32;3.72;;;;;;;;;;7392693;19;19994;-77
2021/12/28 03:53:17;;;;;;;7.15;3.92;;;;;;;;;;7392234;19;19999;-76
2021/12/28 03:55:43;;;;;;;8.75;3.63;;;;;;;;;;7392518;19;20437;-77
2021/12/28 03:58:08;;;;;;;8.63;3.90;;;;;;;;;;7390359;19;20434;-76
2021/12/28 04:00:40;;;;;;;6.78;4.75;;;;;;;;;;7393062;19;20470;-76
2021/12/28 04:03:06;;;;;;;3.08;2.70;;;;;;;;;;7391918;19;19995;-76
2021/12/28 04:05:31;;;;;;;11.77;4.15;;;;;;;;;;7392163;19;20496;-76
2021/12/28 04:07:57;;;;;;;7.45;4.22;;;;;;;;;;7389848;19;20002;-77
2021/12/28 04:10:30;;;;;;;5.50;3.45;;;;;;;;;;7391170;19;20002;-76
2021/12/28 04:12:56;;;;;;;8.52;3.75;;;;;;;;;;7391887;19;20336;-77
2021/12/28 04:15:22;;;;;;;13.70;4.65;;;;;;;;;;7391229;19;19995;-76
2021/12/28 04:17:47;;;;;;;7.75;3.60;;;;;;;;;;7390851;19;20443;-77
2021/12/28 04:20:17;;;;;;;9.05;3.45;;;;;;;;;;7391006;19;20388;-76
2021/12/28 04:22:42;;;;;;;10.27;3.25;;;;;;;;;;7393977;19;20002;-76
2021/12/28 04:25:09;;;;;;;6.68;3.72;;;;;;;;;;7393473;19;20581;-77
2021/12/28 04:27:35;;;;;;;9.57;3.33;;;;;;;;;;7389326;19;20006;-77
2021/12/28 04:30:01;;;;;;;12.85;4.45;;;;;;;;;;7390517;19;20215;-76
2021/12/28 04:32:26;;;;;;;8.02;3.30;;;;;;;;;;7389573;19;20002;-77
2021/12/28 04:34:52;;;;;;;16.55;4.10;;;;;;;;;;7391089;19;20019;-77
2021/12/28 04:37:18;;;;;;;9.60;3.70;;;;;;;;;;7389354;19;19995;-77
2021/12/28 04:39:43;;;;;;;5.75;3.03;;;;;;;;;;7389364;19;20058;-77
2021/12/28 04:42:08;;;;;;;15.85;3.22;;;;;;;;;;7390888;19;20099;-76
2021/12/28 04:44:33;;;;;;;9.40;3.70;;;;;;;;;;7390720;19;20106;-77
2021/12/28 04:46:59;;;;;;;4.63;3.17;;;;;;;;;;7389325;19;20504;-77
2021/12/28 04:49:26;;;;;;;8.15;3.58;;;;;;;;;;7389927;19;20076;-77
2021/12/28 04:51:52;;;;;;;16.25;4.80;;;;;;;;;;7390446;19;20005;-77
2021/12/28 04:54:18;;;;;;;4.38;2.97;;;;;;;;;;7389480;19;20011;-77
2021/12/28 04:56:45;;;;;;;4.68;3.17;;;;;;;;;;7389834;19;20005;-77
2021/12/28 04:59:12;;;;;;;13.32;6.03;;;;;;;;;;7389343;19;19994;-77
2021/12/28 05:01:37;;;;;;;7.57;3.50;;;;;;;;;;7390272;19;20374;-76
2021/12/28 05:04:04;;;;;;;7.45;3.80;;;;;;;;;;7389866;19;19998;-77
2021/12/28 05:06:30;;;;;;;7.97;3.35;;;;;;;;;;7389042;19;20347;-77
2021/12/28 05:08:55;;;;;;;7.85;3.28;;;;;;;;;;7388396;19;19991;-76
2021/12/28 05:11:21;;;;;;;7.32;3.17;;;;;;;;;;7389834;19;19987;-77
2021/12/28 05:13:46;;;;;;;4.90;3.00;;;;;;;;;;7393710;19;19998;-76
2021/12/28 05:16:14;;;;;;;3.80;2.50;;;;;;;;;;7392523;19;20101;-76
2021/12/28 05:18:40;;;;;;;6.22;2.78;;;;;;;;;;7386996;19;20319;-76
2021/12/28 05:21:05;;;;;;;6.15;3.88;;;;;;;;;;7389562;19;20441;-77
2021/12/28 05:23:30;;;;;;;8.07;4.43;;;;;;;;;;7388784;19;19995;-77
2021/12/28 05:25:56;;;;;;;9.05;2.90;;;;;;;;;;7389988;19;20316;-76
2021/12/28 05:28:21;;;;;;;10.32;3.30;;;;;;;;;;7388620;19;20454;-77
2021/12/28 05:30:46;;;;;;;5.82;2.97;;;;;;;;;;7389517;19;20102;-76
2021/12/28 05:33:12;;;;;;;8.88;3.60;;;;;;;;;;7389234;19;20321;-77
2021/12/28 05:35:37;;;;;;;14.20;2.88;;;;;;;;;;7387157;19;20665;-77
2021/12/28 05:38:02;;;;;;;14.80;2.85;;;;;;;;;;7387094;19;19994;-77
2021/12/28 05:40:28;;;;;;;24.75;4.20;;;;;;;;;;7388696;19;20015;-77
2021/12/28 05:42:53;;;;;;;3.88;2.50;;;;;;;;;;7389018;19;19994;-77
2021/12/28 05:45:19;;;;;;;11.20;3.03;;;;;;;;;;7388639;19;20015;-76
2021/12/28 05:47:44;;;;;;;6.13;2.50;;;;;;;;;;7389161;19;19994;-77
2021/12/28 05:50:10;;;;;;;5.55;3.53;;;;;;;;;;7388666;19;20067;-77
2021/12/28 05:52:36;;;;;;;3.58;2.67;;;;;;;;;;7388591;19;20009;-77
2021/12/28 05:55:01;;;;;;;12.93;3.22;;;;;;;;;;7388103;19;20001;-76
2021/12/28 05:57:27;;;;;;;5.07;2.88;;;;;;;;;;7387353;19;19999;-77
2021/12/28 05:59:52;;;;;;;4.22;2.83;;;;;;;;;;7389975;19;19998;-77
2021/12/28 06:02:18;;;;;;;3.95;2.75;;;;;;;;;;7390335;19;20474;-76
2021/12/28 06:04:43;;;;;;;4.95;3.03;;;;;;;;;;7392791;19;20002;-76
2021/12/28 06:07:08;;;;;;;4.05;3.15;;;;;;;;;;7386411;19;19995;-76
2021/12/28 06:09:34;;;;;;;4.18;2.97;;;;;;;;;;7386884;19;19986;-77
2021/12/28 06:11:59;;;;;;;5.55;3.33;;;;;;;;;;7388404;19;20015;-76
2021/12/28 06:14:24;;;;;;;4.85;3.10;;;;;;;;;;7389228;19;19999;-76
2021/12/28 06:16:50;;;;;;;2.85;2.25;;;;;;;;;;7386527;19;20010;-77
2021/12/28 06:19:15;;;;;;;5.82;3.67;;;;;;;;;;7387668;19;19990;-77
2021/12/28 06:21:40;;;;;;;5.68;3.05;;;;;;;;;;7387886;19;19999;-77
2021/12/28 06:24:06;;;;;;;4.05;2.78;;;;;;;;;;7387142;19;20015;-76
2021/12/28 06:26:33;;;;;;;4.65;3.25;;;;;;;;;;7386599;19;20485;-76
2021/12/28 06:29:01;;;;;;;5.47;3.92;;;;;;;;;;7387110;19;20074;-77
2021/12/28 06:31:28;;;;;;;6.10;3.70;;;;;;;;;;7389571;19;19998;-77
2021/12/28 06:33:55;;;;;;;7.03;4.18;;;;;;;;;;7394910;19;20099;-77
2021/12/28 06:36:20;;;;;;;5.93;3.17;;;;;;;;;;7393562;19;20339;-77
2021/12/28 06:38:46;;;;;;;5.55;3.15;;;;;;;;;;7391456;19;20002;-76
2021/12/28 06:41:11;;;;;;;6.82;3.38;;;;;;;;;;7394826;19;20107;-77
2021/12/28 06:43:36;;;;;;;3.00;2.30;;;;;;;;;;7394850;19;19999;-77
2021/12/28 06:46:02;;;;;;;4.53;2.85;;;;;;;;;;7393739;19;19998;-76
2021/12/28 06:48:27;;;;;;;4.82;2.75;;;;;;;;;;7394985;19;20378;-76
2021/12/28 06:50:52;;;;;;;8.05;4.20;;;;;;;;;;7395831;19;20038;-76
2021/12/28 06:53:19;;;;;;;5.75;3.60;;;;;;;;;;7396715;19;20015;-77
2021/12/28 06:55:44;;;;;;;7.43;3.83;;;;;;;;;;7398158;19;20478;-76
2021/12/28 06:58:09;;;;;;;7.47;3.13;;;;;;;;;;7391732;19;20011;-77
2021/12/28 07:00:35;;;;;;;4.10;3.00;;;;;;;;;;7394157;19;20065;-77
2021/12/28 07:03:00;;;;;;;9.77;4.88;;;;;;;;;;7393985;19;20006;-76
2021/12/28 07:05:26;;;;;;;10.77;5.35;;;;;;;;;;7394625;19;19999;-76
2021/12/28 07:07:51;;;;;;;4.28;2.90;;;;;;;;;;7393407;19;19994;-77
2021/12/28 07:10:20;;;;;;;4.22;2.88;;;;;;;;;;7393321;19;19998;-77
2021/12/28 07:12:50;;;;;;;5.65;3.10;;;;;;;;;;7395390;19;20026;-76
2021/12/28 07:15:15;;;;;;;4.13;2.83;;;;;;;;;;7393560;19;20734;-77
2021/12/28 07:17:40;;;;;;;4.78;3.38;;;;;;;;;;7392497;19;19990;-76
2021/12/28 07:20:08;;;;;;;9.43;3.20;;;;;;;;;;7392709;19;19994;-77
2021/12/28 07:22:34;;;;;;;6.38;3.53;;;;;;;;;;7393824;19;20003;-77
2021/12/28 07:24:59;;;;;;;9.07;5.20;;;;;;;;;;7392514;19;20541;-77
2021/12/28 07:27:24;;;;;;;10.77;5.82;;;;;;;;;;7391410;19;20058;-77
2021/12/28 07:29:49;;;;;;;5.65;3.65;;;;;;;;;;7392556;19;20345;-78
2021/12/28 07:32:15;;;;;;;6.93;3.97;;;;;;;;;;7393286;19;19995;-76
2021/12/28 07:34:40;;;;;;;6.63;3.85;;;;;;;;;;7392806;19;20356;-77
2021/12/28 07:37:05;;;;;;;7.60;4.63;;;;;;;;;;7391081;19;20003;-77
2021/12/28 07:39:31;;;;;;;5.00;3.33;;;;;;;;;;7391596;19;20379;-77
2021/12/28 07:41:56;;;;;;;4.43;3.22;;;;;;;;;;7393239;19;19995;-77
2021/12/28 07:44:21;;;;;;;5.10;3.13;;;;;;;;;;7395900;19;20345;-77
2021/12/28 07:46:46;;;;;;;6.93;3.60;;;;;;;;;;7396129;19;20121;-76
2021/12/28 07:49:12;;;;;;;15.55;6.13;;;;;;;;;;7391705;19;20352;-76
2021/12/28 07:51:37;;;;;;;6.90;3.85;;;;;;;;;;7392462;19;19994;-77
2021/12/28 07:54:02;;;;;;;6.82;4.25;;;;;;;;;;7391657;19;20001;-77
2021/12/28 07:56:27;;;;;;;5.10;2.92;;;;;;;;;;7394577;19;20002;-77
2021/12/28 07:58:53;;;;;;;6.35;3.65;;;;;;;;;;7389451;19;20054;-77
2021/12/28 08:01:18;;;;;;;8.27;4.63;;;;;;;;;;7392479;19;19991;-77
2021/12/28 08:03:43;;;;;;;9.65;4.90;;;;;;;;;;7391646;19;20002;-76
2021/12/28 08:06:09;;;;;;;4.82;3.45;;;;;;;;;;7390729;19;20005;-77
2021/12/28 08:08:34;;;;;;;5.82;3.47;;;;;;;;;;7390518;19;20019;-77
2021/12/28 08:11:00;;;;;;;5.50;3.10;;;;;;;;;;7391855;19;20077;-77
2021/12/28 08:13:25;;;;;;;6.85;3.63;;;;;;;;;;7391604;19;20020;-77
2021/12/28 08:15:51;;;;;;;5.53;3.30;;;;;;;;;;7391125;19;20443;-77
2021/12/28 08:18:16;;;;;;;6.80;4.32;;;;;;;;;;7389409;19;19998;-77
2021/12/28 08:20:42;;;;;;;9.25;5.47;;;;;;;;;;7389746;19;19995;-77
2021/12/28 08:23:08;;;;;;;17.95;12.57;;;;;;;;;;7390810;19;19991;-77
2021/12/28 08:25:33;;;;;;;6.28;4.35;;;;;;;;;;7391132;19;20007;-77
2021/12/28 08:28:02;;;;;;;8.55;4.78;;;;;;;;;;7390874;19;20001;-77
2021/12/28 08:30:28;;;;;;;6.88;4.25;;;;;;;;;;7390642;19;20027;-77
2021/12/28 08:32:53;;;;;;;6.15;3.70;;;;;;;;;;7393624;19;20002;-77
2021/12/28 08:35:19;;;;;;;4.97;3.40;;;;;;;;;;7393993;19;20121;-77
2021/12/28 08:37:45;;;;;;;5.47;2.65;;;;;;;;;;7390029;19;19998;-77
2021/12/28 08:40:13;;;;;;;3.47;2.45;;;;;;;;;;7389749;19;20005;-77
2021/12/28 08:42:38;;;;;;;5.00;3.15;;;;;;;;;;7391421;19;20027;-77
2021/12/28 08:45:06;;;;;;;6.75;3.80;;;;;;;;;;7390620;19;19999;-77
2021/12/28 08:47:31;;;;;;;4.57;3.30;;;;;;;;;;7389102;19;19999;-76
2021/12/28 08:49:58;;;;;;;4.90;3.20;;;;;;;;;;7389517;19;20058;-77
2021/12/28 08:52:23;;;;;;;5.35;3.38;;;;;;;;;;7390558;19;20020;-77
2021/12/28 08:54:49;;;;;;;7.55;3.97;;;;;;;;;;7388479;19;20002;-77
2021/12/28 08:57:14;;;;;;;12.80;4.70;;;;;;;;;;7388743;19;20015;-77
2021/12/28 08:59:41;;;;;;;10.65;4.25;;;;;;;;;;7389947;19;20058;-76
2021/12/28 09:02:07;;;;;;;6.28;4.10;;;;;;;;;;7390098;19;20466;-77
2021/12/28 09:04:33;;;;;;;8.48;4.05;;;;;;;;;;7389950;19;20062;-77
2021/12/28 09:06:58;;;;;;;6.10;3.50;;;;;;;;;;7388666;19;20007;-78
2021/12/28 09:09:23;;;;;;;7.75;4.15;;;;;;;;;;7388733;19;19998;-77
2021/12/28 09:11:49;;;;;;;8.65;3.95;;;;;;;;;;7389937;19;19995;-78
2021/12/28 09:14:14;;;;;;;6.28;3.35;;;;;;;;;;7390197;19;20462;-77
2021/12/28 09:16:39;;;;;;;6.93;3.92;;;;;;;;;;7389018;19;20006;-77
2021/12/28 09:19:04;;;;;;;14.50;5.93;;;;;;;;;;7386942;19;20015;-77
2021/12/28 09:21:30;;;;;;;8.00;4.40;;;;;;;;;;7389742;19;19991;-77
2021/12/28 09:23:55;;;;;;;6.85;4.18;;;;;;;;;;7391627;19;20019;-77
2021/12/28 09:26:20;;;;;;;4.72;3.22;;;;;;;;;;7392662;19;20006;-78
2021/12/28 09:28:46;;;;;;;7.68;3.67;;;;;;;;;;7388864;19;20085;-76
2021/12/28 09:31:11;;;;;;;4.75;3.33;;;;;;;;;;7389797;19;19995;-76
2021/12/28 09:33:36;;;;;;;4.80;3.00;;;;;;;;;;7389287;19;20332;-77
2021/12/28 09:36:05;;;;;;;5.50;3.53;;;;;;;;;;7388706;19;20026;-77
2021/12/28 09:38:30;;;;;;;8.02;4.57;;;;;;;;;;7386383;19;20399;-77
2021/12/28 09:40:56;;;;;;;7.13;3.85;;;;;;;;;;7389134;19;20012;-77
2021/12/28 09:43:21;;;;;;;5.63;3.40;;;;;;;;;;7388986;19;20006;-76
2021/12/28 09:45:47;;;;;;;5.85;3.85;;;;;;;;;;7388770;19;20010;-76
2021/12/28 09:48:12;;;;;;;6.88;3.80;;;;;;;;;;7388308;19;19999;-76
2021/12/28 09:50:40;;;;;;;8.55;3.70;;;;;;;;;;7389161;19;20473;-77
2021/12/28 09:53:09;;;;;;;7.50;3.90;;;;;;;;;;7390565;19;19994;-77
2021/12/28 09:55:35;;;;;;;4.97;3.35;;;;;;;;;;7388489;19;20002;-76
2021/12/28 09:58:00;;;;;;;5.00;3.45;;;;;;;;;;7385517;19;20088;-76
2021/12/28 10:00:27;;;;;;;4.88;3.72;;;;;;;;;;7388003;19;19994;-76
2021/12/28 10:02:53;;;;;;;6.72;3.95;;;;;;;;;;7388653;19;20003;-76
2021/12/28 10:05:23;;;;;;;9.48;4.07;;;;;;;;;;7388380;19;19990;-76
2021/12/28 10:07:59;;;;;;;10.15;6.65;;;;;;;;;;7394456;19;20010;-76
2021/12/28 10:10:37;;;;;;;7.85;3.97;;;;;;;;;;7395369;19;19994;-76
2021/12/28 10:13:06;;;;;;;13.38;5.43;;;;;;;;;;7398884;19;19994;-76
2021/12/28 10:15:39;;;;;;;21.70;8.68;;;;;;;;;;7400146;19;19994;-76
2021/12/28 10:18:10;;;;;;;7.63;4.20;;;;;;;;;;7393489;19;19991;-77
2021/12/28 10:20:46;;;;;;;6.38;3.55;;;;;;;;;;7396001;19;20632;-76
2021/12/28 10:23:15;;;;;;;5.28;3.13;;;;;;;;;;7394834;19;20335;-77
2021/12/28 10:25:44;;;;;;;6.25;2.88;;;;;;;;;;7394566;19;20018;-77
2021/12/28 10:28:12;;;;;;;8.88;3.50;;;;;;;;;;7394435;19;19999;-77
2021/12/28 10:30:47;;;;;;;4.78;3.03;;;;;;;;;;7395336;19;20412;-76
2021/12/28 10:33:16;;;;;;;3.20;2.22;;;;;;;;;;7394869;19;20496;-77
2021/12/28 10:35:44;;;;;;;5.13;2.85;;;;;;;;;;7394683;19;20006;-76
2021/12/28 10:38:13;;;;;;;3.97;2.65;;;;;;;;;;7392298;19;20011;-77
2021/12/28 10:40:42;;;;;;;4.25;2.42;;;;;;;;;;7395341;19;19999;-76
2021/12/28 10:43:12;;;;;;;5.13;2.75;;;;;;;;;;7394937;19;19999;-76
2021/12/28 10:45:59;;;;;;;2.88;1.90;;;;;;;;;;7394197;19;20033;-77
2021/12/28 10:48:27;;;;;;;3.92;2.35;;;;;;;;;;7393719;19;20016;-77
2021/12/28 10:51:02;;;;;;;4.20;2.10;;;;;;;;;;7394512;19;20027;-77
2021/12/28 10:53:37;;;;;;;4.45;2.20;;;;;;;;;;7393760;19;20074;-77
2021/12/28 10:56:05;;;;;;;3.42;2.17;;;;;;;;;;7393689;19;20006;-77
2021/12/28 10:58:41;;;;;;;3.97;2.00;;;;;;;;;;7392006;19;19998;-77
2021/12/28 11:01:14;;;;;;;2.78;2.05;;;;;;;;;;7394844;19;20062;-77
2021/12/28 11:03:45;;;;;;;3.38;1.85;;;;;;;;;;7398014;19;20011;-77
2021/12/28 11:06:20;;;;;;;3.97;2.38;;;;;;;;;;7393616;19;20030;-77
2021/12/28 11:08:49;;;;;;;3.47;2.05;;;;;;;;;;7392813;19;20010;-76
2021/12/28 11:11:16;;;;;;;4.32;2.00;;;;;;;;;;7393829;19;20004;-76
2021/12/28 11:13:42;;;;;;;2.92;1.63;;;;;;;;;;7394390;19;20026;-77
2021/12/28 11:16:10;;;;;;;4.38;2.42;;;;;;;;;;7393097;19;20009;-77
2021/12/28 11:18:43;;;;;;;4.40;2.08;;;;;;;;;;7390215;19;20522;-77
2021/12/28 11:21:20;;;;;;;3.95;2.53;;;;;;;;;;7393472;19;19998;-76
2021/12/28 11:23:52;;;;;;;4.95;2.20;;;;;;;;;;7392894;19;20010;-77
2021/12/28 11:26:49;;;;;;;2.70;1.48;;;;;;;;;;7392256;19;20020;-78
2021/12/28 11:29:23;;;;;;;3.38;2.15;;;;;;;;;;7392261;19;20054;-77
2021/12/28 11:31:51;;;;;;;6.05;2.50;;;;;;;;;;7393191;19;20111;-77
2021/12/28 11:34:23;;;;;;;3.13;2.03;;;;;;;;;;7393103;19;20007;-76
2021/12/28 11:36:53;;;;;;;4.15;2.28;;;;;;;;;;7392107;19;20076;-77
2021/12/28 11:39:21;;;;;;;2.88;1.98;;;;;;;;;;7391717;19;20073;-78
2021/12/28 11:41:48;;;;;;;3.33;2.15;;;;;;;;;;7393049;19;20005;-77
2021/12/28 11:44:15;;;;;;;3.58;1.75;;;;;;;;;;7392644;19;19995;-77
2021/12/28 11:46:41;;;;;;;2.22;1.58;;;;;;;;;;7391688;19;19995;-77
2021/12/28 11:49:08;;;;;;;3.90;2.00;;;;;;;;;;7391784;19;20002;-77
2021/12/28 11:51:34;;;;;;;2.70;1.55;;;;;;;;;;7396171;19;19998;-77
2021/12/28 11:54:05;;;;;;;2.05;1.60;;;;;;;;;;7394325;19;20423;-77
2021/12/28 11:56:36;;;;;;;3.60;1.67;;;;;;;;;;7391143;19;20074;-77
2021/12/28 11:59:06;;;;;;;2.53;1.80;;;;;;;;;;7390126;19;20037;-77
2021/12/28 12:01:53;;;;;;;3.95;1.70;;;;;;;;;;7391998;19;20370;-77
2021/12/28 12:04:33;;;;;;;1.42;1.25;;;;;;;;;;7391779;19;20321;-76
2021/12/28 12:07:04;;;;;;;2.60;1.52;;;;;;;;;;7390517;19;20394;-76
2021/12/28 12:09:29;;;;;;;2.47;1.40;;;;;;;;;;7390816;19;20352;-77
2021/12/28 12:12:27;;;;;;;1.90;1.42;;;;;;;;;;7392254;19;19999;-77
2021/12/28 12:14:52;;;;;;;3.13;1.30;;;;;;;;;;7392012;19;20012;-75
2021/12/28 12:17:43;;;;;;;3.78;1.30;;;;;;;;;;7388458;19;20462;-77
2021/12/28 12:20:15;;;;;;;2.75;1.50;;;;;;;;;;7390834;19;20513;-77
2021/12/28 12:22:52;;;;;;;1.63;0.90;;;;;;;;;;7389995;19;20049;-76
2021/12/28 12:25:42;;;;;;;1.63;1.20;;;;;;;;;;7390471;19;20005;-76
2021/12/28 12:28:10;;;;;;;5.30;2.13;;;;;;;;;;7390567;19;20119;-77
2021/12/28 12:30:35;;;;;;;2.50;1.55;;;;;;;;;;7387386;19;20489;-78
2021/12/28 12:33:08;;;;;;;8.27;2.30;;;;;;;;;;7389561;19;20009;-76
2021/12/28 12:35:50;;;;;;;1.70;1.17;;;;;;;;;;7390997;19;20002;-77
2021/12/28 12:38:16;;;;;;;1.73;1.00;;;;;;;;;;7388800;19;20028;-78
2021/12/28 12:41:12;;;;;;;1.73;1.00;;;;;;;;;;7391362;19;20466;-76
2021/12/28 12:43:38;;;;;;;3.17;1.48;;;;;;;;;;7394523;19;20035;-77
2021/12/28 12:46:05;;;;;;;6.85;2.33;;;;;;;;;;7390292;19;20003;-77
2021/12/28 12:48:36;;;;;;;2.38;1.40;;;;;;;;;;7390077;19;20340;-78
2021/12/28 12:51:22;;;;;;;2.95;1.50;;;;;;;;;;7390796;19;19999;-76
2021/12/28 12:54:01;;;;;;;3.15;1.38;;;;;;;;;;7390011;19;20003;-77
2021/12/28 12:56:57;;;;;;;4.93;2.75;;;;;;;;;;7389508;19;20335;-77
2021/12/28 12:59:45;;;;;;;;;;;;;;;;;;7390123;19;20027;-76
2021/12/28 13:02:14;;;;;;;4.20;2.40;;;;;;;;;;7389611;19;19911;-77
2021/12/28 13:04:44;;;;;;;4.30;1.80;;;;;;;;;;7390070;19;20042;-77
2021/12/28 13:07:19;;;;;;;1.92;1.15;;;;;;;;;;7388787;19;20002;-77
2021/12/28 13:10:08;;;;;;;1.70;1.20;;;;;;;;;;7388714;19;20005;-77
2021/12/28 13:12:35;;;;;;;1.20;1.10;;;;;;;;;;7389956;19;19998;-76
2021/12/28 13:15:02;;;;;;;2.17;1.25;;;;;;;;;;7389611;19;20353;-76
2021/12/28 13:17:33;;;;;;;1.05;0.90;;;;;;;;;;7388120;19;20008;-77
2021/12/28 13:20:06;;;;;;;1.08;0.70;;;;;;;;;;7389316;19;19998;-77
2021/12/28 13:22:37;;;;;;;2.25;0.90;;;;;;;;;;7389806;19;20022;-77
2021/12/28 13:25:06;;;;;;;0.55;0.55;;;;;;;;;;7389225;19;19994;-76
2021/12/28 13:27:31;;;;;;;0.40;0.40;;;;;;;;;;7387671;19;20006;-77
2021/12/28 13:29:58;;;;;;;3.95;1.20;;;;;;;;;;7391187;19;19999;-77
2021/12/28 13:32:30;;;;;;;1.00;0.73;;;;;;;;;;7392981;19;19994;-77
2021/12/28 13:35:01;;;;;;;1.63;1.00;;;;;;;;;;7389538;19;19999;-78
2021/12/28 13:37:34;;;;;;;1.25;0.52;;;;;;;;;;7387612;19;20066;-77
2021/12/28 13:40:25;;;;;;;0.20;0.20;;;;;;;;;;7388849;19;20026;-78
2021/12/28 13:43:03;;;;;;;0.50;0.30;;;;;;;;;;7396283;19;19995;-77
2021/12/28 13:45:36;;;;;;;1.05;0.40;;;;;;;;;;7396929;19;20321;-77
2021/12/28 13:48:10;;;;;;;0.82;0.52;;;;;;;;;;7397086;19;20062;-77
2021/12/28 13:50:37;;;;;;;1.50;0.70;;;;;;;;;;7396531;19;20007;-77
2021/12/28 13:53:03;;;;;;;0.43;0.43;;;;;;;;;;7396029;19;20002;-77
2021/12/28 13:55:30;;;;;;;0.25;0.25;;;;;;;;;;7396457;19;20028;-76
2021/12/28 13:57:57;;;;;;;0.82;0.38;;;;;;;;;;7394766;19;20006;-77
2021/12/28 14:00:25;;;;;;;0.47;0.40;;;;;;;;;;7395505;19;20003;-77
2021/12/28 14:03:12;;;;;;;0.98;0.60;;;;;;;;;;7396372;19;20003;-77
2021/12/28 14:05:38;;;;;;;0.57;0.30;;;;;;;;;;7394951;19;20028;-77
2021/12/28 14:08:04;;;;;;;0.40;0.30;;;;;;;;;;7395125;19;20111;-77
2021/12/28 14:10:35;;;;;;;0.28;0.28;;;;;;;;;;7395594;19;20005;-78
2021/12/28 14:13:03;;;;;;;0.20;0.20;;;;;;;;;;7395932;19;19999;-77
2021/12/28 14:15:28;;;;;;;0.70;0.40;;;;;;;;;;7395705;19;20007;-77
2021/12/28 14:17:54;;;;;;;1.05;0.40;;;;;;;;;;7394571;19;20009;-78
2021/12/28 14:20:27;;;;;;;0.65;0.50;;;;;;;;;;7398809;19;20344;-77
2021/12/28 14:22:52;;;;;;;0.50;0.30;;;;;;;;;;7395382;19;20007;-78
2021/12/28 14:25:19;;;;;;;1.08;0.47;;;;;;;;;;7393331;19;20070;-77
2021/12/28 14:27:53;;;;;;;0.65;0.43;;;;;;;;;;7395002;19;20033;-77
2021/12/28 14:30:19;;;;;;;0.60;0.43;;;;;;;;;;7394906;19;20396;-77
2021/12/28 14:32:49;;;;;;;0.77;0.50;;;;;;;;;;7395039;19;20017;-77
2021/12/28 14:35:17;;;;;;;0.57;0.30;;;;;;;;;;7394673;19;20006;-77
2021/12/28 14:37:45;;;;;;;0.98;0.60;;;;;;;;;;7393791;19;20002;-77
2021/12/28 14:40:17;;;;;;;2.33;0.70;;;;;;;;;;7393617;19;20306;-77
2021/12/28 14:42:43;;;;;;;1.05;0.60;;;;;;;;;;7395291;19;20204;-76
2021/12/28 14:45:10;;;;;;;0.75;0.57;;;;;;;;;;7394693;19;20062;-76